createdAt,value
2023-08-20T00:04:07.856Z,20.90
2023-08-20T00:09:12.442Z,20.60
2023-08-20T00:14:18.653Z,22.40
2023-08-20T00:19:21.028Z,20.50
2023-08-20T00:24:24.514Z,20.50
2023-08-20T00:29:26.353Z,20.70
2023-08-20T00:34:28.220Z,20.70
2023-08-20T00:39:31.711Z,20.70
2023-08-20T00:44:33.855Z,20.70
2023-08-20T00:49:35.957Z,20.40
2023-08-20T00:54:39.588Z,20.40
2023-08-20T00:59:43.248Z,20.60
2023-08-20T01:04:48.027Z,20.60
2023-08-20T01:09:58.972Z,20.70
2023-08-20T01:15:01.111Z,20.50
2023-08-20T01:20:05.219Z,20.40
2023-08-20T01:25:48.487Z,20.20
2023-08-20T01:30:50.497Z,20.20
2023-08-20T01:35:54.183Z,20.20
2023-08-20T01:40:57.580Z,20.40
2023-08-20T01:45:59.446Z,20.30
2023-08-20T01:51:01.379Z,20.30
2023-08-20T01:56:03.933Z,20.10
2023-08-20T02:01:05.735Z,20.00
2023-08-20T02:06:08.710Z,19.90
2023-08-20T02:11:11.225Z,20.00
2023-08-20T02:16:12.995Z,20.10
2023-08-20T02:21:15.104Z,20.10
2023-08-20T02:26:17.008Z,20.00
2023-08-20T02:31:19.364Z,20.10
2023-08-20T02:36:22.047Z,20.10
2023-08-20T02:41:27.640Z,20.10
2023-08-20T02:46:29.678Z,20.00
2023-08-20T02:51:31.554Z,20.00
2023-08-20T02:56:33.313Z,19.70
2023-08-20T03:01:38.752Z,19.60
2023-08-20T03:06:40.810Z,20.00
2023-08-20T03:11:43.219Z,19.90
2023-08-20T03:16:44.986Z,19.80
2023-08-20T03:21:46.722Z,19.50
2023-08-20T03:26:49.685Z,19.40
2023-08-20T03:31:52.956Z,19.60
2023-08-20T03:36:55.873Z,19.50
2023-08-20T03:41:58.017Z,19.40
2023-08-20T03:46:59.902Z,19.30
2023-08-20T03:52:03.337Z,19.30
2023-08-20T03:57:05.944Z,19.40
2023-08-20T04:02:08.158Z,19.30
2023-08-20T04:07:11.328Z,19.30
2023-08-20T04:12:13.343Z,19.20
2023-08-20T04:17:16.206Z,19.30
2023-08-20T04:22:19.098Z,19.40
2023-08-20T04:27:21.400Z,19.40
2023-08-20T04:32:23.727Z,19.50
2023-08-20T04:37:25.425Z,19.30
2023-08-20T04:42:27.306Z,19.20
2023-08-20T04:47:29.380Z,19.30
2023-08-20T04:52:31.315Z,19.10
2023-08-20T04:57:33.203Z,19.10
2023-08-20T05:02:35.515Z,19.10
2023-08-20T05:07:38.249Z,19.80
2023-08-20T05:12:40.068Z,19.30
2023-08-20T05:17:42.159Z,19.20
2023-08-20T05:22:45.270Z,19.20
2023-08-20T05:27:47.363Z,19.20
2023-08-20T05:32:49.359Z,19.30
2023-08-20T05:37:51.361Z,19.40
2023-08-20T05:42:53.163Z,19.50
2023-08-20T05:47:55.067Z,19.70
2023-08-20T05:52:57.170Z,19.80
2023-08-20T05:57:59.182Z,20.20
2023-08-20T06:03:01.095Z,20.30
2023-08-20T06:08:02.989Z,20.20
2023-08-20T06:13:05.202Z,20.20
2023-08-20T06:18:07.438Z,20.70
2023-08-20T06:23:09.766Z,21.00
2023-08-20T06:28:11.864Z,21.30
2023-08-20T06:33:13.907Z,21.40
2023-08-20T06:38:17.794Z,21.60
2023-08-20T06:43:19.802Z,21.50
2023-08-20T06:48:23.543Z,21.70
2023-08-20T06:53:25.385Z,22.00
2023-08-20T06:58:27.566Z,22.10
2023-08-20T07:03:29.604Z,22.40
2023-08-20T07:08:31.454Z,22.80
2023-08-20T07:13:33.214Z,23.10
2023-08-20T07:18:35.394Z,23.40
2023-08-20T07:23:37.447Z,23.40
2023-08-20T07:28:59.492Z,23.40
2023-08-20T07:34:06.036Z,23.50
2023-08-20T07:39:09.944Z,23.30
2023-08-20T07:44:13.145Z,23.80
2023-08-20T07:49:15.147Z,23.40
2023-08-20T07:54:16.992Z,23.40
2023-08-20T07:59:18.785Z,24.00
2023-08-20T08:04:21.663Z,23.90
2023-08-20T08:09:29.722Z,23.80
2023-08-20T08:14:31.655Z,23.80
2023-08-20T08:19:33.807Z,23.80
2023-08-20T08:24:35.823Z,24.10
2023-08-20T08:29:37.735Z,24.70
2023-08-20T08:34:40.296Z,24.50
2023-08-20T08:39:42.188Z,24.50
2023-08-20T08:44:44.958Z,24.80
2023-08-20T08:49:47.757Z,24.30
2023-08-20T08:54:50.026Z,24.50
2023-08-20T08:59:51.890Z,24.70
2023-08-20T09:04:54.605Z,24.00
2023-08-20T09:10:00.890Z,24.80
2023-08-20T09:15:02.926Z,25.40
2023-08-20T09:20:05.746Z,25.70
2023-08-20T09:25:08.029Z,25.60
2023-08-20T09:30:11.436Z,24.50
2023-08-20T09:35:19.752Z,24.00
2023-08-20T09:40:21.588Z,24.30
2023-08-20T09:45:29.563Z,24.40
2023-08-20T09:50:37.806Z,24.10
2023-08-20T09:55:42.538Z,24.90
2023-08-20T10:00:45.443Z,25.90
2023-08-20T10:05:50.709Z,25.30
2023-08-20T10:10:52.592Z,26.20
2023-08-20T10:15:59.189Z,25.70
2023-08-20T10:21:04.443Z,25.50
2023-08-20T10:26:11.589Z,27.30
2023-08-20T10:31:17.341Z,26.00
2023-08-20T10:36:27.103Z,25.30
2023-08-20T10:41:31.657Z,25.30
2023-08-20T10:46:36.221Z,25.20
2023-08-20T10:51:39.038Z,24.90
2023-08-20T10:56:54.304Z,25.70
2023-08-20T11:01:58.138Z,25.70
2023-08-20T11:07:01.151Z,26.40
2023-08-20T11:12:03.354Z,25.70
2023-08-20T11:17:05.460Z,27.10
2023-08-20T11:22:07.293Z,25.90
2023-08-20T11:27:12.997Z,26.30
2023-08-20T11:32:16.598Z,28.10
2023-08-20T11:37:24.840Z,28.10
2023-08-20T11:42:27.330Z,28.30
2023-08-20T11:47:29.646Z,29.90
2023-08-20T11:52:33.767Z,29.80
2023-08-20T11:57:36.066Z,27.00
2023-08-20T12:02:40.349Z,30.10
2023-08-20T12:07:42.536Z,27.30
2023-08-20T12:12:45.421Z,29.50
2023-08-20T12:18:01.523Z,28.90
2023-08-20T12:23:07.106Z,28.90
2023-08-20T12:28:09.520Z,29.80
2023-08-20T12:38:17.415Z,30.00
2023-08-20T12:43:19.181Z,29.50
2023-08-20T12:48:21.930Z,31.80
2023-08-20T12:53:24.000Z,30.20
2023-08-20T12:58:28.694Z,26.80
2023-08-20T13:03:31.918Z,26.20
2023-08-20T13:08:34.435Z,29.70
2023-08-20T13:13:36.753Z,29.40
2023-08-20T13:18:39.221Z,31.00
2023-08-20T13:23:42.091Z,32.60
2023-08-20T13:28:43.888Z,32.30
2023-08-20T13:33:45.666Z,29.60
2023-08-20T13:38:47.524Z,27.20
2023-08-20T13:43:49.780Z,27.90
2023-08-20T13:48:53.094Z,29.10
2023-08-20T13:53:56.554Z,32.20
2023-08-20T13:58:58.278Z,27.70
2023-08-20T14:04:00.285Z,30.00
2023-08-20T14:09:02.248Z,33.40
2023-08-20T14:14:04.258Z,32.00
2023-08-20T14:19:06.103Z,31.40
2023-08-20T14:24:08.264Z,32.60
2023-08-20T14:29:11.388Z,30.80
2023-08-20T14:34:13.122Z,30.70
2023-08-20T14:39:15.298Z,27.30
2023-08-20T14:44:17.370Z,27.10
2023-08-20T14:49:20.530Z,30.30
2023-08-20T14:54:22.270Z,30.10
2023-08-20T14:59:25.417Z,30.70
2023-08-20T15:04:28.932Z,31.00
2023-08-20T15:09:30.983Z,31.90
2023-08-20T15:14:32.775Z,31.00
2023-08-20T15:19:34.859Z,30.40
2023-08-20T15:24:36.930Z,30.40
2023-08-20T15:29:38.769Z,30.30
2023-08-20T15:34:43.202Z,27.70
2023-08-20T15:39:45.345Z,27.80
2023-08-20T15:44:50.032Z,27.90
2023-08-20T15:49:52.816Z,28.50
2023-08-20T15:54:54.902Z,30.70
2023-08-20T15:59:56.986Z,27.90
2023-08-20T16:05:00.356Z,26.70
2023-08-20T16:10:02.690Z,26.40
2023-08-20T16:15:07.376Z,27.20
2023-08-20T16:20:09.644Z,28.60
2023-08-20T16:25:11.687Z,26.90
2023-08-20T16:30:15.501Z,27.50
2023-08-20T16:35:17.686Z,27.60
2023-08-20T16:40:23.380Z,27.90
2023-08-20T16:45:28.117Z,25.90
2023-08-20T16:50:30.171Z,25.50
2023-08-20T16:55:33.504Z,25.50
2023-08-20T17:00:35.845Z,26.60
2023-08-20T17:05:39.070Z,25.40
2023-08-20T17:10:41.902Z,25.10
2023-08-20T17:15:44.262Z,25.00
2023-08-20T17:20:46.729Z,25.00
2023-08-20T17:25:49.117Z,24.90
2023-08-20T17:30:54.154Z,24.80
2023-08-20T17:35:57.523Z,24.80
2023-08-20T17:40:59.405Z,24.70
2023-08-20T17:46:01.439Z,24.70
2023-08-20T17:51:03.200Z,24.50
2023-08-20T17:56:06.787Z,25.70
2023-08-20T18:01:08.746Z,24.80
2023-08-20T18:06:11.091Z,24.60
2023-08-20T18:11:13.205Z,24.60
2023-08-20T18:16:16.411Z,24.40
2023-08-20T18:21:18.470Z,24.50
2023-08-20T18:26:20.465Z,24.40
2023-08-20T18:31:22.588Z,24.90
2023-08-20T18:36:26.718Z,24.70
2023-08-20T18:41:29.189Z,25.40
2023-08-20T18:46:31.519Z,25.70
2023-08-20T18:51:38.518Z,25.80
2023-08-20T18:56:41.122Z,25.50
2023-08-20T19:01:42.872Z,25.90
2023-08-20T19:06:45.554Z,25.90
2023-08-20T19:11:47.621Z,25.90
2023-08-20T19:16:49.482Z,25.80
2023-08-20T19:21:51.637Z,25.70
2023-08-20T19:26:53.392Z,25.70
2023-08-20T19:31:55.275Z,25.50
2023-08-20T19:36:57.317Z,25.60
2023-08-20T19:41:59.093Z,25.60
2023-08-20T19:47:01.089Z,25.30
2023-08-20T19:52:03.463Z,25.30
2023-08-20T19:57:05.321Z,25.20
2023-08-20T20:02:07.528Z,25.20
2023-08-20T20:07:22.172Z,25.20
2023-08-20T20:12:26.039Z,25.10
2023-08-20T20:17:28.087Z,24.80
2023-08-20T20:22:30.451Z,24.50
2023-08-20T20:27:35.539Z,24.40
2023-08-20T20:32:40.141Z,24.50
2023-08-20T20:37:42.502Z,24.50
2023-08-20T20:42:44.665Z,24.20
2023-08-20T20:47:46.763Z,24.30
2023-08-20T20:52:49.711Z,24.20
2023-08-20T20:57:51.600Z,23.80
2023-08-20T21:02:53.565Z,23.90
2023-08-20T21:07:55.705Z,23.80
2023-08-20T21:12:57.577Z,23.80
2023-08-20T21:17:59.573Z,23.50
2023-08-20T21:23:01.583Z,23.90
2023-08-20T21:28:03.750Z,23.60
2023-08-20T21:33:05.804Z,23.70
2023-08-20T21:38:08.453Z,23.70
2023-08-20T21:43:10.552Z,23.90
2023-08-20T21:48:12.351Z,24.10
2023-08-20T21:53:14.139Z,23.90
2023-08-20T21:58:16.121Z,24.10
2023-08-20T22:03:18.065Z,24.00
2023-08-20T22:08:19.953Z,24.10
2023-08-20T22:13:24.032Z,23.70
2023-08-20T22:18:25.980Z,23.80
2023-08-20T22:23:28.283Z,23.80
2023-08-20T22:28:30.580Z,23.90
2023-08-20T22:33:32.791Z,23.60
2023-08-20T22:38:34.606Z,23.50
2023-08-20T22:43:36.420Z,23.60
2023-08-20T22:53:40.592Z,23.50
2023-08-20T22:58:45.340Z,23.60
2023-08-20T23:03:47.350Z,23.60
2023-08-20T23:08:49.364Z,23.50
2023-08-20T23:13:55.354Z,23.50
2023-08-20T23:18:58.285Z,23.60
2023-08-20T23:24:00.149Z,23.30
2023-08-20T23:29:05.310Z,23.30
2023-08-20T23:34:07.340Z,23.20
2023-08-20T23:44:15.047Z,23.00
2023-08-20T23:49:17.643Z,23.10
2023-08-20T23:54:20.754Z,23.00
2023-08-20T23:59:23.813Z,23.20
